createdAt,value
2023-04-17T00:02:40.070Z,44.65
2023-04-17T00:05:09.071Z,40.53
2023-04-17T00:07:39.682Z,43.65
2023-04-17T00:10:08.060Z,40.35
2023-04-17T00:12:35.756Z,49.83
2023-04-17T00:15:03.719Z,42.72
2023-04-17T00:19:59.811Z,46.95
2023-04-17T00:22:27.247Z,43.15
2023-04-17T00:24:54.675Z,46.47
2023-04-17T00:27:22.063Z,51.22
2023-04-17T00:29:49.505Z,46.42
2023-04-17T00:32:16.910Z,49.35
2023-04-17T00:34:44.358Z,46.85
2023-04-17T00:37:13.121Z,52.78
2023-04-17T00:39:40.611Z,47.42
2023-04-17T00:42:08.040Z,47.13
2023-04-17T00:44:35.421Z,47.80
2023-04-17T00:47:03.410Z,56.50
2023-04-17T00:51:58.418Z,52.63
2023-04-17T00:54:27.205Z,42.70
2023-04-17T00:56:55.154Z,47.08
2023-04-17T01:01:50.288Z,46.50
2023-04-17T01:04:17.982Z,46.92
2023-04-17T01:06:45.472Z,45.70
2023-04-17T01:09:13.181Z,61.58
2023-04-17T01:14:09.571Z,52.00
2023-04-17T01:16:38.997Z,50.03
2023-04-17T01:19:06.758Z,50.85
2023-04-17T01:21:35.728Z,52.95
2023-04-17T01:24:05.360Z,48.42
2023-04-17T01:26:33.163Z,50.90
2023-04-17T01:31:29.996Z,53.35
2023-04-17T01:36:24.890Z,53.05
2023-04-17T01:38:52.628Z,50.72
2023-04-17T01:41:21.463Z,46.80
2023-04-17T01:43:48.888Z,47.35
2023-04-17T01:46:16.830Z,55.97
2023-04-17T01:51:11.516Z,52.85
2023-04-17T01:53:39.967Z,51.95
2023-04-17T01:58:36.836Z,50.35
2023-04-17T02:01:05.481Z,47.65
2023-04-17T02:06:00.768Z,45.53
2023-04-17T02:08:29.636Z,49.83
2023-04-17T02:10:59.435Z,50.28
2023-04-17T02:13:27.003Z,44.38
2023-04-17T02:15:55.858Z,47.80
2023-04-17T02:18:23.293Z,48.38
2023-04-17T02:20:50.957Z,53.03
2023-04-17T02:23:18.388Z,50.25
2023-04-17T02:25:45.809Z,51.20
2023-04-17T02:28:15.628Z,46.67
2023-04-17T02:30:43.106Z,55.15
2023-04-17T02:33:11.929Z,47.75
2023-04-17T02:35:40.037Z,51.03
2023-04-17T02:40:34.890Z,47.05
2023-04-17T02:43:03.372Z,52.40
2023-04-17T02:45:31.080Z,50.08
2023-04-17T02:47:58.543Z,51.58
2023-04-17T02:50:27.360Z,49.17
2023-04-17T02:53:06.278Z,48.80
2023-04-17T02:55:33.807Z,48.63
2023-04-17T02:58:01.592Z,49.92
2023-04-17T03:00:29.642Z,52.35
2023-04-17T03:05:24.782Z,55.63
2023-04-17T03:07:56.077Z,51.97
2023-04-17T03:10:23.705Z,53.75
2023-04-17T03:12:51.279Z,52.22
2023-04-17T03:15:18.711Z,52.83
2023-04-17T03:17:46.278Z,54.85
2023-04-17T03:20:15.696Z,59.92
2023-04-17T03:22:43.307Z,54.67
2023-04-17T03:25:12.287Z,60.15
2023-04-17T03:27:46.945Z,54.60
2023-04-17T03:30:15.520Z,54.00
2023-04-17T03:32:47.265Z,56.30
2023-04-17T03:35:14.704Z,54.15
2023-04-17T03:40:13.774Z,61.65
2023-04-17T03:42:44.285Z,58.08
2023-04-17T03:45:11.999Z,52.92
2023-04-17T03:47:39.483Z,52.80
2023-04-17T03:50:08.152Z,57.20
2023-04-17T03:52:40.768Z,52.15
2023-04-17T03:55:09.567Z,53.00
2023-04-17T03:57:38.633Z,56.83
2023-04-17T04:00:10.306Z,61.00
2023-04-17T04:02:47.744Z,55.28
2023-04-17T04:05:19.833Z,56.38
2023-04-17T04:07:47.770Z,55.70
2023-04-17T04:10:22.252Z,54.75
2023-04-17T04:12:51.159Z,57.08
2023-04-17T04:15:18.960Z,58.67
2023-04-17T04:17:50.719Z,58.08
2023-04-17T04:20:18.534Z,56.33
2023-04-17T04:22:46.243Z,54.20
2023-04-17T04:25:13.686Z,55.83
2023-04-17T04:27:50.823Z,59.47
2023-04-17T04:30:25.362Z,56.13
2023-04-17T04:32:57.238Z,60.83
2023-04-17T04:35:25.918Z,61.15
2023-04-17T04:37:54.614Z,62.17
2023-04-17T04:40:22.415Z,53.25
2023-04-17T04:42:52.830Z,55.85
2023-04-17T04:45:27.577Z,57.97
2023-04-17T04:47:55.561Z,55.53
2023-04-17T04:50:24.247Z,59.15
2023-04-17T04:52:51.635Z,53.67
2023-04-17T04:55:35.492Z,60.53
2023-04-17T04:58:04.555Z,61.25
2023-04-17T05:00:32.546Z,52.42
2023-04-17T05:03:01.410Z,48.38
2023-04-17T05:05:29.770Z,53.60
2023-04-17T05:07:57.217Z,50.75
2023-04-17T05:10:29.154Z,56.80
2023-04-17T05:13:01.138Z,55.30
2023-04-17T05:15:29.992Z,48.78
2023-04-17T05:17:57.816Z,50.55
2023-04-17T05:20:28.226Z,51.63
2023-04-17T05:22:58.552Z,52.63
2023-04-17T05:25:26.105Z,49.63
2023-04-17T05:27:56.016Z,41.63
2023-04-17T05:33:00.871Z,49.92
2023-04-17T05:35:42.093Z,47.88
2023-04-17T05:38:09.631Z,47.83
2023-04-17T05:40:37.340Z,48.28
2023-04-17T05:43:08.405Z,45.92
2023-04-17T05:45:36.462Z,53.65
2023-04-17T05:48:05.414Z,52.33
2023-04-17T05:50:33.016Z,46.30
2023-04-17T05:53:00.453Z,50.42
2023-04-17T05:55:31.397Z,47.20
2023-04-17T05:58:10.522Z,45.10
2023-04-17T06:00:45.595Z,54.92
2023-04-17T06:03:18.135Z,46.50
2023-04-17T06:05:48.241Z,51.60
2023-04-17T06:08:16.276Z,49.85
2023-04-17T06:10:45.562Z,48.80
2023-04-17T06:13:13.331Z,43.13
2023-04-17T06:15:45.144Z,50.88
2023-04-17T06:18:15.943Z,54.25
2023-04-17T06:20:44.702Z,48.88
2023-04-17T06:23:12.221Z,45.00
2023-04-17T06:25:39.685Z,48.20
2023-04-17T06:28:07.085Z,48.10
2023-04-17T06:30:35.418Z,45.53
2023-04-17T06:33:03.752Z,48.00
2023-04-17T06:38:17.529Z,42.33
2023-04-17T06:40:45.086Z,45.55
2023-04-17T06:43:12.510Z,48.83
2023-04-17T06:45:42.213Z,46.35
2023-04-17T06:48:09.727Z,43.38
2023-04-17T06:50:39.641Z,47.97
2023-04-17T06:53:07.228Z,52.20
2023-04-17T06:55:36.079Z,53.35
2023-04-17T06:58:04.090Z,46.92
2023-04-17T07:02:58.901Z,49.45
2023-04-17T07:05:26.607Z,47.85
2023-04-17T07:07:55.121Z,52.47
2023-04-17T07:10:22.558Z,55.75
2023-04-17T07:12:51.420Z,48.20
2023-04-17T07:15:19.219Z,43.95
2023-04-17T07:20:14.200Z,47.70
2023-04-17T07:22:43.078Z,51.25
2023-04-17T07:25:10.708Z,46.40
2023-04-17T07:27:39.392Z,46.30
2023-04-17T07:30:09.747Z,49.58
2023-04-17T07:32:37.172Z,48.22
2023-04-17T07:35:05.340Z,52.25
2023-04-17T07:37:32.786Z,45.03
2023-04-17T07:40:00.215Z,45.63
2023-04-17T07:42:28.406Z,44.17
2023-04-17T07:44:55.880Z,49.67
2023-04-17T07:47:24.915Z,43.53
2023-04-17T07:49:52.389Z,40.85
2023-04-17T07:52:19.822Z,60.25
2023-04-17T07:54:47.272Z,45.30
2023-04-17T07:57:15.066Z,43.00
2023-04-17T07:59:42.572Z,40.50
2023-04-17T08:02:10.254Z,35.45
2023-04-17T08:04:40.305Z,40.90
2023-04-17T08:07:10.478Z,38.25
2023-04-17T08:09:38.181Z,38.10
2023-04-17T08:12:06.142Z,42.80
2023-04-17T08:17:01.868Z,41.78
2023-04-17T08:19:29.909Z,36.67
2023-04-17T08:24:25.956Z,34.83
2023-04-17T08:26:53.438Z,31.77
2023-04-17T08:29:20.820Z,29.30
2023-04-17T08:31:48.310Z,31.02
2023-04-17T08:34:15.898Z,33.05
2023-04-17T08:36:43.604Z,29.35
2023-04-17T08:39:12.273Z,34.47
2023-04-17T08:41:45.132Z,27.17
2023-04-17T08:44:12.750Z,32.10
2023-04-17T08:46:40.658Z,25.63
2023-04-17T08:49:08.259Z,24.38
2023-04-17T08:51:35.777Z,24.17
2023-04-17T08:54:03.250Z,33.38
2023-04-17T08:56:30.908Z,28.77
2023-04-17T08:58:59.696Z,35.65
2023-04-17T09:01:29.762Z,24.65
2023-04-17T09:03:58.000Z,26.85
2023-04-17T09:06:25.730Z,26.05
2023-04-17T09:08:57.606Z,29.10
2023-04-17T09:11:25.280Z,25.77
2023-04-17T09:13:53.199Z,29.83
2023-04-17T09:18:49.430Z,23.85
2023-04-17T09:21:18.605Z,25.65
2023-04-17T09:23:50.263Z,25.08
2023-04-17T09:26:18.478Z,25.25
2023-04-17T09:29:01.257Z,25.13
2023-04-17T09:31:30.313Z,24.88
2023-04-17T09:33:59.781Z,20.20
2023-04-17T09:36:30.394Z,29.25
2023-04-17T09:38:59.357Z,19.60
2023-04-17T09:41:27.995Z,22.92
2023-04-17T09:43:56.239Z,22.83
2023-04-17T09:46:33.769Z,18.40
2023-04-17T09:49:04.155Z,18.65
2023-04-17T09:51:31.972Z,19.15
2023-04-17T09:54:00.082Z,22.27
2023-04-17T09:56:28.053Z,21.58
2023-04-17T09:58:55.570Z,13.07
2023-04-17T10:01:23.403Z,15.85
2023-04-17T10:06:20.571Z,15.23
2023-04-17T10:08:48.149Z,15.95
2023-04-17T10:11:15.735Z,17.60
2023-04-17T10:13:46.220Z,23.40
2023-04-17T10:16:13.819Z,15.73
2023-04-17T10:18:41.670Z,16.17
2023-04-17T10:21:22.031Z,13.70
2023-04-17T10:23:49.704Z,14.63
2023-04-17T10:26:38.761Z,19.70
2023-04-17T10:29:06.217Z,15.65
2023-04-17T10:31:57.724Z,11.75
2023-04-17T10:34:35.424Z,14.25
2023-04-17T10:39:49.793Z,11.75
2023-04-17T10:42:18.861Z,16.20
2023-04-17T10:44:46.555Z,15.07
2023-04-17T10:47:14.780Z,11.50
2023-04-17T10:49:49.869Z,11.05
2023-04-17T10:52:35.858Z,9.93
2023-04-17T10:55:05.150Z,15.82
2023-04-17T10:57:51.585Z,20.38
2023-04-17T11:00:19.833Z,13.73
2023-04-17T11:02:50.102Z,14.45
2023-04-17T11:05:17.938Z,17.80
2023-04-17T11:07:50.681Z,13.07
2023-04-17T11:10:20.635Z,13.32
2023-04-17T11:12:53.207Z,12.02
2023-04-17T11:15:26.277Z,14.23
2023-04-17T11:17:53.861Z,12.68
2023-04-17T11:20:21.822Z,11.02
2023-04-17T11:22:49.268Z,14.57
2023-04-17T11:25:21.971Z,18.35
2023-04-17T11:27:51.786Z,13.57
2023-04-17T11:30:26.551Z,13.75
2023-04-17T11:32:54.069Z,19.02
2023-04-17T11:35:25.620Z,17.95
2023-04-17T11:38:12.857Z,18.63
2023-04-17T11:40:45.400Z,11.65
2023-04-17T11:43:13.668Z,14.85
2023-04-17T11:45:41.928Z,16.88
2023-04-17T11:48:10.144Z,16.50
2023-04-17T11:50:37.881Z,17.17
2023-04-17T11:55:34.374Z,15.05
2023-04-17T11:58:04.538Z,17.77
2023-04-17T12:00:32.151Z,14.30
2023-04-17T12:03:00.899Z,18.33
2023-04-17T12:05:29.231Z,15.73
2023-04-17T12:08:04.297Z,14.90
2023-04-17T12:10:38.513Z,18.58
2023-04-17T12:13:07.313Z,18.13
2023-04-17T12:15:35.321Z,17.80
2023-04-17T12:18:05.562Z,14.23
2023-04-17T12:20:33.809Z,17.70
2023-04-17T12:23:01.340Z,16.42
2023-04-17T12:25:29.113Z,21.13
2023-04-17T12:27:59.000Z,15.48
2023-04-17T12:30:28.238Z,15.18
2023-04-17T12:32:56.608Z,22.75
2023-04-17T12:35:24.404Z,16.75
2023-04-17T12:37:52.207Z,15.27
2023-04-17T12:40:23.030Z,15.50
2023-04-17T12:42:51.983Z,15.93
2023-04-17T12:45:19.660Z,14.75
2023-04-17T12:50:15.994Z,19.45
2023-04-17T12:52:43.426Z,20.65
2023-04-17T12:55:11.452Z,14.48
2023-04-17T12:57:40.011Z,13.93
2023-04-17T13:00:09.135Z,16.75
2023-04-17T13:02:37.168Z,16.90
2023-04-17T13:05:05.907Z,17.60
2023-04-17T13:07:34.805Z,16.15
2023-04-17T13:10:02.275Z,12.10
2023-04-17T13:12:29.693Z,20.02
2023-04-17T13:14:57.519Z,15.95
2023-04-17T13:17:25.139Z,14.50
2023-04-17T13:19:52.686Z,15.25
2023-04-17T13:22:20.566Z,14.75
2023-04-17T13:27:16.992Z,15.48
2023-04-17T13:29:44.679Z,14.88
2023-04-17T13:34:39.667Z,16.77
2023-04-17T13:37:07.204Z,15.05
2023-04-17T13:39:34.768Z,13.82
2023-04-17T13:42:02.409Z,22.33
2023-04-17T13:44:32.043Z,15.07
2023-04-17T13:46:59.502Z,17.70
2023-04-17T13:49:28.019Z,19.75
2023-04-17T13:51:55.485Z,20.55
2023-04-17T13:54:22.984Z,20.42
2023-04-17T13:59:18.428Z,16.08
2023-04-17T14:01:47.374Z,23.55
2023-04-17T14:04:15.049Z,21.90
2023-04-17T14:06:44.014Z,15.15
2023-04-17T14:09:11.966Z,14.40
2023-04-17T14:11:39.661Z,15.20
2023-04-17T14:14:07.104Z,19.90
2023-04-17T14:16:34.595Z,12.27
2023-04-17T14:19:12.560Z,13.55
2023-04-17T14:21:40.639Z,13.77
2023-04-17T14:24:08.208Z,18.00
2023-04-17T14:26:35.835Z,12.32
2023-04-17T14:31:30.593Z,17.17
2023-04-17T14:33:58.108Z,15.05
2023-04-17T14:36:27.586Z,16.02
2023-04-17T14:38:55.051Z,13.10
2023-04-17T14:41:22.504Z,19.42
2023-04-17T14:43:49.946Z,14.15
2023-04-17T14:46:17.405Z,11.60
2023-04-17T14:48:54.822Z,12.65
2023-04-17T14:51:23.226Z,18.70
2023-04-17T14:56:20.099Z,15.15
2023-04-17T14:58:47.592Z,10.57
2023-04-17T15:06:11.924Z,11.73
2023-04-17T15:08:40.307Z,12.18
2023-04-17T15:11:07.740Z,14.85
2023-04-17T15:13:36.750Z,11.00
2023-04-17T15:16:04.349Z,14.50
2023-04-17T15:20:59.186Z,15.27
2023-04-17T15:23:28.494Z,20.27
2023-04-17T15:25:57.358Z,13.88
2023-04-17T15:28:24.776Z,14.85
2023-04-17T15:30:53.590Z,14.05
2023-04-17T15:33:21.019Z,15.55
2023-04-17T15:35:48.569Z,15.15
2023-04-17T15:38:16.000Z,19.30
2023-04-17T15:40:43.388Z,15.20
2023-04-17T15:43:11.786Z,26.63
2023-04-17T15:45:39.323Z,13.55
2023-04-17T15:48:08.195Z,14.38
2023-04-17T15:50:35.617Z,14.38
2023-04-17T15:53:03.159Z,11.07
2023-04-17T15:55:30.620Z,14.45
2023-04-17T15:57:58.042Z,13.90
2023-04-17T16:00:28.421Z,16.35
2023-04-17T16:02:56.005Z,23.00
2023-04-17T16:07:52.196Z,15.90
2023-04-17T16:10:19.613Z,16.27
2023-04-17T16:12:47.485Z,14.10
2023-04-17T16:17:43.048Z,17.30
2023-04-17T16:20:10.883Z,16.45
2023-04-17T16:25:07.438Z,13.65
2023-04-17T16:27:35.193Z,13.40
2023-04-17T16:30:04.974Z,16.42
2023-04-17T16:32:32.449Z,18.27
2023-04-17T16:34:59.918Z,22.38
2023-04-17T16:37:27.461Z,14.48
2023-04-17T16:39:54.986Z,15.18
2023-04-17T16:42:24.074Z,21.23
2023-04-17T16:44:51.929Z,17.95
2023-04-17T16:49:46.637Z,16.10
2023-04-17T16:52:14.045Z,15.50
2023-04-17T16:54:41.435Z,19.85
2023-04-17T16:57:09.082Z,17.50
2023-04-17T16:59:37.849Z,14.07
2023-04-17T17:02:05.360Z,21.70
2023-04-17T17:04:32.777Z,15.52
2023-04-17T17:07:00.394Z,14.88
2023-04-17T17:09:27.793Z,18.35
2023-04-17T17:11:55.420Z,19.08
2023-04-17T17:14:22.886Z,19.20
2023-04-17T17:16:51.695Z,22.85
2023-04-17T17:19:20.517Z,16.60
2023-04-17T17:21:47.922Z,25.05
2023-04-17T17:24:15.310Z,17.90
2023-04-17T17:26:42.771Z,21.00
2023-04-17T17:29:10.333Z,26.80
2023-04-17T17:31:37.902Z,16.98
2023-04-17T17:34:22.502Z,20.92
2023-04-17T17:36:53.818Z,22.63
2023-04-17T17:39:22.314Z,17.75
2023-04-17T17:41:50.027Z,14.88
2023-04-17T17:44:17.540Z,19.58
2023-04-17T17:46:45.197Z,21.63
2023-04-17T17:49:13.988Z,15.98
2023-04-17T17:51:41.722Z,18.70
2023-04-17T17:54:09.225Z,19.73
2023-04-17T17:56:36.673Z,14.55
2023-04-17T17:59:04.194Z,25.50
2023-04-17T18:01:31.664Z,15.73
2023-04-17T18:03:59.222Z,22.27
2023-04-17T18:06:28.426Z,17.98
2023-04-17T18:08:57.877Z,20.75
2023-04-17T18:11:25.683Z,18.13
2023-04-17T18:13:53.102Z,17.35
2023-04-17T18:16:21.461Z,16.27
2023-04-17T18:18:49.083Z,17.05
2023-04-17T18:21:16.499Z,21.95
2023-04-17T18:23:45.266Z,28.02
2023-04-17T18:26:12.893Z,17.63
2023-04-17T18:28:40.318Z,21.25
2023-04-17T18:31:07.804Z,18.42
2023-04-17T18:33:36.020Z,15.93
2023-04-17T18:36:03.448Z,15.75
2023-04-17T18:38:30.946Z,16.10
2023-04-17T18:41:01.043Z,18.42
2023-04-17T18:43:28.666Z,21.77
2023-04-17T18:45:56.129Z,19.33
2023-04-17T18:48:24.613Z,15.45
2023-04-17T18:50:52.238Z,24.10
2023-04-17T18:53:19.594Z,14.80
2023-04-17T18:55:47.022Z,19.10
2023-04-17T18:58:15.775Z,19.25
2023-04-17T19:00:43.277Z,17.98
2023-04-17T19:03:10.986Z,19.42
2023-04-17T19:05:38.421Z,17.17
2023-04-17T19:08:05.982Z,18.10
2023-04-17T19:10:33.432Z,26.65
2023-04-17T19:13:00.851Z,19.30
2023-04-17T19:15:29.692Z,15.63
2023-04-17T19:17:57.164Z,20.90
2023-04-17T19:20:24.567Z,20.25
2023-04-17T19:22:52.030Z,18.38
2023-04-17T19:25:19.602Z,27.13
2023-04-17T19:27:46.981Z,19.38
2023-04-17T19:30:14.508Z,15.77
2023-04-17T19:32:43.238Z,23.35
2023-04-17T19:35:10.942Z,17.48
2023-04-17T19:37:38.358Z,22.75
2023-04-17T19:40:14.254Z,24.50
2023-04-17T19:42:49.297Z,17.85
2023-04-17T19:45:17.220Z,18.58
2023-04-17T19:50:13.506Z,21.73
2023-04-17T19:52:43.170Z,24.65
2023-04-17T19:55:10.891Z,19.35
2023-04-17T19:57:39.061Z,16.65
2023-04-17T20:00:07.334Z,16.42
2023-04-17T20:02:40.126Z,17.15
2023-04-17T20:05:07.889Z,20.70
2023-04-17T20:07:36.985Z,20.52
2023-04-17T20:10:04.742Z,22.83
2023-04-17T20:12:32.168Z,20.67
2023-04-17T20:14:59.561Z,27.75
2023-04-17T20:17:26.955Z,21.58
2023-04-17T20:19:54.388Z,19.58
2023-04-17T20:22:21.779Z,21.38
2023-04-17T20:24:50.741Z,30.42
2023-04-17T20:27:18.142Z,17.23
2023-04-17T20:29:45.591Z,23.35
2023-04-17T20:32:13.147Z,20.48
2023-04-17T20:34:40.561Z,21.58
2023-04-17T20:37:08.004Z,23.67
2023-04-17T20:39:35.506Z,23.10
2023-04-17T20:42:04.357Z,17.10
2023-04-17T20:44:32.319Z,18.30
2023-04-17T20:49:26.968Z,23.48
2023-04-17T20:51:54.414Z,18.25
2023-04-17T20:54:23.013Z,21.23
2023-04-17T20:56:50.689Z,22.42
2023-04-17T20:59:19.446Z,20.88
2023-04-17T21:01:46.887Z,15.77
2023-04-17T21:04:14.452Z,21.83
2023-04-17T21:06:41.995Z,23.88
2023-04-17T21:09:09.939Z,22.52
2023-04-17T21:14:04.706Z,20.63
2023-04-17T21:16:33.527Z,20.80
2023-04-17T21:19:00.948Z,16.98
2023-04-17T21:21:28.623Z,19.23
2023-04-17T21:23:56.059Z,17.20
2023-04-17T21:26:23.467Z,19.05
2023-04-17T21:28:50.899Z,21.77
2023-04-17T21:31:18.362Z,15.32
2023-04-17T21:33:47.126Z,22.42
2023-04-17T21:36:14.957Z,17.27
2023-04-17T21:41:09.684Z,24.10
2023-04-17T21:43:37.118Z,21.85
2023-04-17T21:46:04.768Z,24.67
2023-04-17T21:48:32.210Z,27.10
2023-04-17T21:51:04.155Z,18.27
2023-04-17T21:53:31.605Z,18.75
2023-04-17T21:55:58.997Z,14.85
2023-04-17T21:58:26.407Z,17.23
2023-04-17T22:00:54.820Z,18.00
2023-04-17T22:03:22.638Z,21.30
2023-04-17T22:08:19.420Z,19.45
2023-04-17T22:10:46.785Z,15.77
2023-04-17T22:13:15.469Z,25.08
2023-04-17T22:15:42.829Z,19.15
2023-04-17T22:18:10.213Z,16.23
2023-04-17T22:20:37.642Z,17.95
2023-04-17T22:23:05.010Z,19.45
2023-04-17T22:25:33.672Z,19.77
2023-04-17T22:28:01.063Z,20.67
2023-04-17T22:30:28.467Z,18.17
2023-04-17T22:32:57.127Z,23.88
2023-04-17T22:35:24.533Z,23.05
2023-04-17T22:37:51.923Z,22.33
2023-04-17T22:40:19.413Z,14.40
2023-04-17T22:42:48.183Z,19.58
2023-04-17T22:45:15.668Z,14.02
2023-04-17T22:47:43.039Z,19.02
2023-04-17T22:50:11.607Z,15.60
2023-04-17T22:52:39.005Z,17.65
2023-04-17T22:55:06.923Z,18.67
2023-04-17T23:00:03.727Z,13.57
2023-04-17T23:02:31.156Z,14.52
2023-04-17T23:04:58.754Z,20.02
2023-04-17T23:07:26.150Z,19.05
2023-04-17T23:09:53.522Z,17.02
2023-04-17T23:12:20.920Z,15.95
2023-04-17T23:14:48.385Z,20.15
2023-04-17T23:17:17.138Z,18.85
2023-04-17T23:19:44.463Z,14.15
2023-04-17T23:22:11.840Z,16.02
2023-04-17T23:24:39.961Z,24.42
2023-04-17T23:27:07.342Z,17.02
2023-04-17T23:29:34.747Z,15.15
2023-04-17T23:32:04.344Z,19.73
2023-04-17T23:34:33.066Z,17.80
2023-04-17T23:37:01.995Z,20.83
2023-04-17T23:39:29.430Z,15.13
2023-04-17T23:41:57.543Z,16.00
2023-04-17T23:44:25.025Z,13.65
2023-04-17T23:46:52.484Z,19.00
2023-04-17T23:49:19.889Z,18.77
2023-04-17T23:51:48.698Z,21.20
2023-04-17T23:54:16.191Z,17.42
2023-04-17T23:56:44.390Z,18.15
2023-04-17T23:59:11.933Z,16.58
